Danville, Virginia
Current Conditions -  °F | °C
As of 6:53 PM on Wednesday 22 Oct 2014 (Local Time) from KDAN Reporting Station
Clear Clear  
Wind Chill: 59°   Ceiling: Unl
Heat Index: 59°   Visibility: 10mi
Dew Point: 41°   Wind: 10mph
Humidity: 51%   Direction: 320°NW
Pressure: 30.02"   Gusts: NA
Location:  36.59°N, 79.42°W
Report Text: KDAN 222253Z AUTO 32009KT 10SM CLR 15/05 A3002 RMK AO2 SLP158 T01500050
Loading
Personal Weather Stations






























Interactive Weather Map New forecast layout! Learn more

10-Day Weather Forecast

Advertisements
Track Severe Weather on mobile